createdAt,value
2023-05-12T00:04:41.309Z,998.85
2023-05-12T00:09:41.213Z,998.79
2023-05-12T00:14:41.142Z,998.79
2023-05-12T00:19:41.064Z,998.85
2023-05-12T00:24:41.003Z,998.87
2023-05-12T00:29:40.935Z,998.85
2023-05-12T00:34:40.884Z,998.87
2023-05-12T00:39:40.800Z,998.94
2023-05-12T00:44:40.742Z,998.99
2023-05-12T00:49:40.673Z,998.91
2023-05-12T00:54:40.616Z,998.92
2023-05-12T00:59:40.549Z,998.90
2023-05-12T01:04:40.473Z,998.88
2023-05-12T01:09:40.419Z,998.91
2023-05-12T01:14:40.350Z,998.92
2023-05-12T01:19:40.271Z,998.87
2023-05-12T01:24:40.208Z,998.87
2023-05-12T01:29:40.136Z,998.84
2023-05-12T01:34:40.081Z,998.82
2023-05-12T01:39:40.025Z,998.87
2023-05-12T01:44:39.942Z,998.81
2023-05-12T01:49:39.876Z,998.88
2023-05-12T01:54:39.811Z,998.87
2023-05-12T01:59:39.739Z,998.91
2023-05-12T02:04:39.680Z,998.92
2023-05-12T02:09:39.635Z,998.97
2023-05-12T02:14:39.557Z,998.91
2023-05-12T02:19:39.485Z,998.90
2023-05-12T02:24:39.429Z,998.91
2023-05-12T02:29:39.353Z,998.91
2023-05-12T02:34:39.297Z,998.94
2023-05-12T02:39:39.226Z,998.96
2023-05-12T02:44:39.176Z,998.91
2023-05-12T02:49:39.099Z,998.96
2023-05-12T02:54:39.057Z,998.88
2023-05-12T02:59:38.972Z,998.90
2023-05-12T03:04:38.922Z,998.95
2023-05-12T03:09:38.840Z,999.00
2023-05-12T03:14:38.792Z,998.98
2023-05-12T03:19:38.723Z,999.02
2023-05-12T03:24:38.661Z,998.99
2023-05-12T03:29:38.575Z,998.96
2023-05-12T03:34:38.602Z,998.91
2023-05-12T03:39:38.452Z,998.90
2023-05-12T03:44:38.390Z,998.71
2023-05-12T03:49:38.313Z,998.81
2023-05-12T03:54:38.255Z,998.85
2023-05-12T03:59:38.185Z,998.80
2023-05-12T04:04:38.124Z,998.78
2023-05-12T04:09:38.070Z,998.75
2023-05-12T04:14:42.843Z,998.82
2023-05-12T04:19:37.931Z,998.93
2023-05-12T04:24:37.862Z,998.93
2023-05-12T04:29:37.798Z,999.05
2023-05-12T04:34:37.733Z,999.14
2023-05-12T04:39:37.671Z,999.25
2023-05-12T04:44:37.599Z,999.17
2023-05-12T04:49:37.536Z,999.09
2023-05-12T04:54:37.472Z,999.08
2023-05-12T04:59:37.888Z,999.16
2023-05-12T05:04:37.336Z,999.11
2023-05-12T05:09:37.277Z,999.17
2023-05-12T05:14:37.207Z,999.32
2023-05-12T05:19:48.244Z,999.23
2023-05-12T05:24:38.097Z,999.24
2023-05-12T05:29:37.006Z,999.31
2023-05-12T05:34:36.959Z,999.28
2023-05-12T05:39:36.879Z,999.32
2023-05-12T05:44:36.807Z,999.32
2023-05-12T05:49:36.763Z,999.42
2023-05-12T05:54:36.677Z,999.37
2023-05-12T05:59:36.621Z,999.40
2023-05-12T06:04:36.548Z,999.41
2023-05-12T06:09:36.492Z,999.47
2023-05-12T06:14:36.426Z,999.54
2023-05-12T06:19:36.357Z,999.57
2023-05-12T06:24:36.301Z,999.58
2023-05-12T06:29:36.226Z,999.64
2023-05-12T06:34:36.162Z,999.65
2023-05-12T06:39:36.089Z,999.63
2023-05-12T06:44:36.031Z,999.70
2023-05-12T06:49:35.960Z,999.71
2023-05-12T06:54:35.889Z,999.77
2023-05-12T06:59:35.835Z,999.73
2023-05-12T07:04:35.761Z,999.78
2023-05-12T07:09:35.691Z,999.78
2023-05-12T07:14:35.627Z,999.79
2023-05-12T07:19:35.570Z,999.81
2023-05-12T07:24:35.485Z,999.93
2023-05-12T07:29:35.475Z,999.81
2023-05-12T07:34:35.354Z,999.79
2023-05-12T07:39:35.297Z,999.76
2023-05-12T07:44:35.226Z,999.76
2023-05-12T07:49:35.177Z,999.79
2023-05-12T07:54:35.097Z,999.70
2023-05-12T07:59:35.035Z,999.67
2023-05-12T08:04:35.034Z,999.70
2023-05-12T08:09:34.921Z,999.76
2023-05-12T08:14:34.830Z,999.67
2023-05-12T08:19:34.782Z,999.79
2023-05-12T08:24:34.700Z,999.84
2023-05-12T08:29:34.653Z,999.84
2023-05-12T08:34:34.572Z,999.85
2023-05-12T08:39:34.535Z,999.82
2023-05-12T08:44:34.447Z,999.89
2023-05-12T08:49:34.380Z,999.83
2023-05-12T08:54:37.835Z,999.83
2023-05-12T08:59:34.251Z,999.84
2023-05-12T09:04:34.216Z,999.90
2023-05-12T09:09:34.298Z,999.78
2023-05-12T09:14:34.049Z,999.80
2023-05-12T09:19:33.996Z,999.74
2023-05-12T09:24:33.922Z,999.76
2023-05-12T09:29:39.542Z,999.76
2023-05-12T09:34:33.805Z,999.75
2023-05-12T09:39:33.753Z,999.69
2023-05-12T09:44:33.670Z,999.79
2023-05-12T09:49:33.638Z,999.65
2023-05-12T09:54:33.547Z,999.66
2023-05-12T09:59:33.507Z,999.68
2023-05-12T10:04:33.425Z,999.73
2023-05-12T10:09:33.347Z,999.68
2023-05-12T10:14:33.277Z,999.63
2023-05-12T10:19:33.215Z,999.64
2023-05-12T10:24:33.131Z,999.61
2023-05-12T10:29:33.160Z,999.54
2023-05-12T10:34:33.002Z,999.53
2023-05-12T10:39:33.104Z,999.50
2023-05-12T10:44:32.870Z,999.43
2023-05-12T10:49:32.812Z,999.58
2023-05-12T10:54:32.740Z,999.46
2023-05-12T10:59:33.026Z,999.45
2023-05-12T11:04:32.761Z,999.49
2023-05-12T11:09:32.685Z,999.45
2023-05-12T11:14:32.482Z,999.44
2023-05-12T11:19:32.427Z,999.45
2023-05-12T11:24:32.350Z,999.53
2023-05-12T11:29:32.301Z,999.51
2023-05-12T11:34:32.215Z,999.46
2023-05-12T11:39:32.181Z,999.46
2023-05-12T11:44:32.084Z,999.49
2023-05-12T11:49:32.074Z,999.53
2023-05-12T11:54:31.957Z,999.48
2023-05-12T11:59:31.912Z,999.53
2023-05-12T12:04:31.897Z,999.53
2023-05-12T12:09:31.768Z,999.56
2023-05-12T12:14:31.701Z,999.59
2023-05-12T12:19:31.642Z,999.68
2023-05-12T12:24:31.570Z,999.65
2023-05-12T12:29:31.508Z,999.70
2023-05-12T12:34:31.439Z,999.68
2023-05-12T12:39:31.383Z,999.76
2023-05-12T12:44:31.309Z,999.77
2023-05-12T12:49:31.248Z,999.76
2023-05-12T12:54:31.185Z,999.84
2023-05-12T12:59:31.117Z,999.73
2023-05-12T13:04:31.044Z,999.78
2023-05-12T13:09:30.995Z,999.77
2023-05-12T13:14:30.915Z,999.84
2023-05-12T13:19:30.863Z,999.86
2023-05-12T13:24:30.788Z,999.77
2023-05-12T13:29:30.740Z,999.79
2023-05-12T13:34:30.668Z,999.64
2023-05-12T13:39:30.598Z,999.60
2023-05-12T13:44:30.539Z,999.66
2023-05-12T13:49:30.475Z,999.60
2023-05-12T13:54:30.407Z,999.69
2023-05-12T13:59:30.373Z,999.69
2023-05-12T14:04:30.280Z,999.85
2023-05-12T14:09:30.215Z,999.86
2023-05-12T14:14:30.137Z,999.87
2023-05-12T14:19:30.072Z,999.85
2023-05-12T14:24:30.005Z,999.81
2023-05-12T14:29:29.944Z,999.73
2023-05-12T14:34:29.868Z,999.75
2023-05-12T14:39:29.819Z,999.81
2023-05-12T14:44:29.732Z,999.84
2023-05-12T14:49:29.678Z,999.83
2023-05-12T14:54:29.612Z,999.86
2023-05-12T14:59:29.560Z,999.88
2023-05-12T15:04:29.489Z,999.80
2023-05-12T15:09:29.409Z,999.80
2023-05-12T15:14:29.355Z,999.87
2023-05-12T15:19:29.294Z,999.80
2023-05-12T15:24:29.220Z,999.83
2023-05-12T15:29:29.201Z,999.84
2023-05-12T15:34:29.172Z,999.83
2023-05-12T15:39:29.244Z,999.81
2023-05-12T15:44:29.250Z,999.82
2023-05-12T15:49:29.244Z,999.76
2023-05-12T15:54:29.326Z,999.72
2023-05-12T15:59:29.306Z,999.74
2023-05-12T16:04:28.689Z,999.70
2023-05-12T16:09:28.635Z,999.70
2023-05-12T16:14:28.566Z,999.73
2023-05-12T16:19:28.760Z,999.72
2023-05-12T16:24:28.443Z,999.71
2023-05-12T16:29:28.383Z,999.69
2023-05-12T16:34:28.310Z,999.66
2023-05-12T16:39:28.253Z,999.62
2023-05-12T16:44:28.174Z,999.65
2023-05-12T16:49:28.106Z,999.66
2023-05-12T16:54:28.055Z,999.67
2023-05-12T16:59:27.998Z,999.68
2023-05-12T17:04:27.909Z,999.68
2023-05-12T17:09:27.848Z,999.67
2023-05-12T17:14:27.774Z,999.69
2023-05-12T17:19:27.754Z,999.76
2023-05-12T17:24:27.645Z,999.79
2023-05-12T17:29:27.585Z,999.89
2023-05-12T17:34:27.522Z,999.86
2023-05-12T17:39:27.462Z,999.86
2023-05-12T17:44:27.392Z,999.89
2023-05-12T17:49:27.332Z,999.88
2023-05-12T17:54:27.264Z,999.91
2023-05-12T17:59:27.190Z,999.91
2023-05-12T18:04:27.148Z,999.86
2023-05-12T18:09:27.080Z,999.93
2023-05-12T18:14:26.995Z,999.98
2023-05-12T18:19:26.944Z,1000.02
2023-05-12T18:24:26.853Z,1000.16
2023-05-12T18:29:26.804Z,1000.31
2023-05-12T18:34:26.734Z,1000.52
2023-05-12T18:39:26.667Z,1000.62
2023-05-12T18:44:26.586Z,1000.92
2023-05-12T18:49:26.516Z,1000.79
2023-05-12T18:54:26.470Z,1000.61
2023-05-12T18:59:26.393Z,1000.67
2023-05-12T19:04:26.324Z,1000.86
2023-05-12T19:09:26.264Z,1000.86
2023-05-12T19:14:26.202Z,1000.88
2023-05-12T19:19:26.138Z,1000.87
2023-05-12T19:24:26.071Z,1000.93
2023-05-12T19:29:26.029Z,1001.03
2023-05-12T19:34:25.944Z,1001.02
2023-05-12T19:39:25.896Z,1001.07
2023-05-12T19:44:25.812Z,1001.19
2023-05-12T19:49:25.764Z,1001.23
2023-05-12T19:54:25.677Z,1001.13
2023-05-12T19:59:25.629Z,1001.19
2023-05-12T20:04:25.541Z,1001.17
2023-05-12T20:09:25.488Z,1001.11
2023-05-12T20:14:25.411Z,1001.17
2023-05-12T20:19:25.357Z,1001.24
2023-05-12T20:24:25.283Z,1001.24
2023-05-12T20:29:25.223Z,1001.28
2023-05-12T20:34:25.158Z,1001.28
2023-05-12T20:39:25.095Z,1001.32
2023-05-12T20:44:25.018Z,1001.34
2023-05-12T20:49:24.960Z,1001.31
2023-05-12T20:54:24.887Z,1001.34
2023-05-12T20:59:24.831Z,1001.36
2023-05-12T21:04:24.805Z,1001.40
2023-05-12T21:09:24.701Z,1001.42
2023-05-12T21:14:24.626Z,1001.41
2023-05-12T21:19:24.569Z,1001.42
2023-05-12T21:24:24.513Z,1001.49
2023-05-12T21:29:24.445Z,1001.47
2023-05-12T21:34:24.356Z,1001.51
2023-05-12T21:39:24.308Z,1001.48
2023-05-12T21:44:24.234Z,1001.47
2023-05-12T21:49:24.173Z,1001.51
2023-05-12T21:54:24.101Z,1001.63
2023-05-12T21:59:24.042Z,1001.61
2023-05-12T22:04:23.958Z,1001.62
2023-05-12T22:09:23.899Z,1001.72
2023-05-12T22:14:23.826Z,1001.71
2023-05-12T22:19:23.819Z,1001.82
2023-05-12T22:24:23.692Z,1001.85
2023-05-12T22:29:23.735Z,1001.88
2023-05-12T22:34:23.571Z,1001.83
2023-05-12T22:39:23.517Z,1001.87
2023-05-12T22:44:23.442Z,1001.91
2023-05-12T22:49:23.398Z,1001.89
2023-05-12T22:54:23.316Z,1001.86
2023-05-12T22:59:23.271Z,1001.87
2023-05-12T23:04:23.310Z,1001.99
2023-05-12T23:09:23.139Z,1001.99
2023-05-12T23:14:23.056Z,1001.97
2023-05-12T23:19:23.003Z,1001.98
2023-05-12T23:24:22.929Z,1001.99
2023-05-12T23:29:22.867Z,1002.02
2023-05-12T23:34:22.805Z,1002.02
2023-05-12T23:39:22.753Z,1002.00
2023-05-12T23:44:22.682Z,1002.04
2023-05-12T23:49:22.611Z,1002.08
2023-05-12T23:54:22.561Z,1002.10
2023-05-12T23:59:22.491Z,1002.09
